sensor_id;sensor_type;location;lat;lon;timestamp;P1;durP1;ratioP1;P2;durP2;ratioP2
72261;SDS011;60173;52.112;8.648;2023-02-01T00:02:21;32.53;;;5.07;;
72261;SDS011;60173;52.112;8.648;2023-02-01T00:04:48;33.58;;;5.15;;
72261;SDS011;60173;52.112;8.648;2023-02-01T00:07:14;31.05;;;5.05;;
72261;SDS011;60173;52.112;8.648;2023-02-01T00:09:40;25.95;;;4.70;;
72261;SDS011;60173;52.112;8.648;2023-02-01T00:12:07;21.73;;;4.80;;
72261;SDS011;60173;52.112;8.648;2023-02-01T00:14:33;28.02;;;4.70;;
72261;SDS011;60173;52.112;8.648;2023-02-01T00:16:59;26.92;;;4.22;;
72261;SDS011;60173;52.112;8.648;2023-02-01T00:19:26;30.17;;;4.55;;
72261;SDS011;60173;52.112;8.648;2023-02-01T00:21:52;32.60;;;5.07;;
72261;SDS011;60173;52.112;8.648;2023-02-01T00:24:18;26.10;;;4.13;;
72261;SDS011;60173;52.112;8.648;2023-02-01T00:26:45;27.52;;;4.82;;
72261;SDS011;60173;52.112;8.648;2023-02-01T00:29:12;31.90;;;5.07;;
72261;SDS011;60173;52.112;8.648;2023-02-01T00:31:43;29.90;;;5.13;;
72261;SDS011;60173;52.112;8.648;2023-02-01T00:34:11;27.23;;;5.10;;
72261;SDS011;60173;52.112;8.648;2023-02-01T00:36:39;27.08;;;4.70;;
72261;SDS011;60173;52.112;8.648;2023-02-01T00:39:06;32.75;;;5.32;;
72261;SDS011;60173;52.112;8.648;2023-02-01T00:41:33;30.20;;;4.72;;
72261;SDS011;60173;52.112;8.648;2023-02-01T00:44:00;33.03;;;5.03;;
72261;SDS011;60173;52.112;8.648;2023-02-01T00:46:27;35.30;;;6.28;;
72261;SDS011;60173;52.112;8.648;2023-02-01T00:48:53;41.15;;;5.72;;
72261;SDS011;60173;52.112;8.648;2023-02-01T00:51:21;29.83;;;4.78;;
72261;SDS011;60173;52.112;8.648;2023-02-01T00:53:50;26.65;;;4.43;;
72261;SDS011;60173;52.112;8.648;2023-02-01T00:56:17;32.65;;;5.20;;
72261;SDS011;60173;52.112;8.648;2023-02-01T00:58:43;23.10;;;4.95;;
72261;SDS011;60173;52.112;8.648;2023-02-01T01:01:13;32.55;;;4.82;;
72261;SDS011;60173;52.112;8.648;2023-02-01T01:03:51;33.88;;;4.80;;
72261;SDS011;60173;52.112;8.648;2023-02-01T01:06:20;33.80;;;5.60;;
72261;SDS011;60173;52.112;8.648;2023-02-01T01:08:50;33.35;;;4.85;;
72261;SDS011;60173;52.112;8.648;2023-02-01T01:11:18;29.75;;;5.05;;
72261;SDS011;60173;52.112;8.648;2023-02-01T01:13:47;32.50;;;4.35;;
72261;SDS011;60173;52.112;8.648;2023-02-01T01:16:14;29.20;;;5.22;;
72261;SDS011;60173;52.112;8.648;2023-02-01T01:18:41;28.42;;;5.22;;
72261;SDS011;60173;52.112;8.648;2023-02-01T01:21:07;32.35;;;4.70;;
72261;SDS011;60173;52.112;8.648;2023-02-01T01:23:35;27.88;;;4.68;;
72261;SDS011;60173;52.112;8.648;2023-02-01T01:26:06;30.98;;;5.40;;
72261;SDS011;60173;52.112;8.648;2023-02-01T01:28:33;32.90;;;5.72;;
72261;SDS011;60173;52.112;8.648;2023-02-01T01:30:59;23.42;;;4.55;;
72261;SDS011;60173;52.112;8.648;2023-02-01T01:33:26;30.15;;;5.70;;
72261;SDS011;60173;52.112;8.648;2023-02-01T01:35:52;34.72;;;4.93;;
72261;SDS011;60173;52.112;8.648;2023-02-01T01:38:18;24.55;;;5.18;;
72261;SDS011;60173;52.112;8.648;2023-02-01T01:40:45;32.45;;;5.10;;
72261;SDS011;60173;52.112;8.648;2023-02-01T01:43:14;31.48;;;4.50;;
72261;SDS011;60173;52.112;8.648;2023-02-01T01:45:41;25.90;;;4.70;;
72261;SDS011;60173;52.112;8.648;2023-02-01T01:48:09;25.35;;;4.57;;
72261;SDS011;60173;52.112;8.648;2023-02-01T01:50:42;26.27;;;4.43;;
72261;SDS011;60173;52.112;8.648;2023-02-01T01:53:12;28.52;;;4.80;;
72261;SDS011;60173;52.112;8.648;2023-02-01T01:55:44;34.38;;;4.95;;
72261;SDS011;60173;52.112;8.648;2023-02-01T01:58:15;26.02;;;5.30;;
72261;SDS011;60173;52.112;8.648;2023-02-01T02:00:45;26.17;;;4.70;;
72261;SDS011;60173;52.112;8.648;2023-02-01T02:03:20;22.33;;;4.57;;
72261;SDS011;60173;52.112;8.648;2023-02-01T02:05:50;30.20;;;4.45;;
72261;SDS011;60173;52.112;8.648;2023-02-01T02:08:18;32.33;;;4.95;;
72261;SDS011;60173;52.112;8.648;2023-02-01T02:10:46;27.20;;;4.50;;
72261;SDS011;60173;52.112;8.648;2023-02-01T02:13:14;26.27;;;4.78;;
72261;SDS011;60173;52.112;8.648;2023-02-01T02:15:43;27.90;;;4.97;;
72261;SDS011;60173;52.112;8.648;2023-02-01T02:21:42;29.20;;;4.35;;
72261;SDS011;60173;52.112;8.648;2023-02-01T02:41:16;29.67;;;5.03;;
72261;SDS011;60173;52.112;8.648;2023-02-01T02:43:52;32.58;;;5.35;;
72261;SDS011;60173;52.112;8.648;2023-02-01T02:46:29;20.58;;;3.88;;
72261;SDS011;60173;52.112;8.648;2023-02-01T02:49:08;30.88;;;5.45;;
72261;SDS011;60173;52.112;8.648;2023-02-01T02:51:39;22.65;;;4.22;;
72261;SDS011;60173;52.112;8.648;2023-02-01T02:54:13;24.35;;;5.30;;
72261;SDS011;60173;52.112;8.648;2023-02-01T02:56:42;28.20;;;5.78;;
72261;SDS011;60173;52.112;8.648;2023-02-01T02:59:08;32.15;;;5.53;;
72261;SDS011;60173;52.112;8.648;2023-02-01T03:01:38;24.95;;;5.38;;
72261;SDS011;60173;52.112;8.648;2023-02-01T03:04:05;26.73;;;4.65;;
72261;SDS011;60173;52.112;8.648;2023-02-01T03:06:32;30.17;;;5.10;;
72261;SDS011;60173;52.112;8.648;2023-02-01T03:08:59;28.48;;;4.80;;
72261;SDS011;60173;52.112;8.648;2023-02-01T03:11:30;30.60;;;5.10;;
72261;SDS011;60173;52.112;8.648;2023-02-01T03:13:59;30.45;;;5.47;;
72261;SDS011;60173;52.112;8.648;2023-02-01T03:21:33;35.38;;;5.65;;
72261;SDS011;60173;52.112;8.648;2023-02-01T03:24:28;26.98;;;4.63;;
72261;SDS011;60173;52.112;8.648;2023-02-01T03:32:31;26.40;;;4.22;;
72261;SDS011;60173;52.112;8.648;2023-02-01T03:34:58;28.23;;;5.10;;
72261;SDS011;60173;52.112;8.648;2023-02-01T03:37:25;32.63;;;4.88;;
72261;SDS011;60173;52.112;8.648;2023-02-01T03:39:56;26.48;;;4.90;;
72261;SDS011;60173;52.112;8.648;2023-02-01T03:42:33;34.35;;;5.28;;
72261;SDS011;60173;52.112;8.648;2023-02-01T03:45:19;22.73;;;4.53;;
72261;SDS011;60173;52.112;8.648;2023-02-01T03:47:51;25.27;;;4.72;;
72261;SDS011;60173;52.112;8.648;2023-02-01T03:50:22;25.45;;;4.78;;
72261;SDS011;60173;52.112;8.648;2023-02-01T03:52:56;21.17;;;4.05;;
72261;SDS011;60173;52.112;8.648;2023-02-01T03:55:28;28.52;;;5.00;;
72261;SDS011;60173;52.112;8.648;2023-02-01T03:58:01;31.50;;;4.30;;
72261;SDS011;60173;52.112;8.648;2023-02-01T04:00:27;23.60;;;4.50;;
72261;SDS011;60173;52.112;8.648;2023-02-01T04:02:54;26.20;;;4.47;;
72261;SDS011;60173;52.112;8.648;2023-02-01T04:05:21;27.88;;;4.88;;
72261;SDS011;60173;52.112;8.648;2023-02-01T04:07:48;31.08;;;4.38;;
72261;SDS011;60173;52.112;8.648;2023-02-01T04:10:14;31.35;;;4.25;;
72261;SDS011;60173;52.112;8.648;2023-02-01T04:12:44;25.17;;;4.68;;
72261;SDS011;60173;52.112;8.648;2023-02-01T04:15:11;25.40;;;5.10;;
72261;SDS011;60173;52.112;8.648;2023-02-01T04:17:37;35.58;;;4.97;;
72261;SDS011;60173;52.112;8.648;2023-02-01T04:20:02;26.38;;;4.22;;
72261;SDS011;60173;52.112;8.648;2023-02-01T04:22:29;30.67;;;5.03;;
72261;SDS011;60173;52.112;8.648;2023-02-01T04:24:55;24.85;;;3.85;;
72261;SDS011;60173;52.112;8.648;2023-02-01T04:27:22;36.33;;;5.60;;
72261;SDS011;60173;52.112;8.648;2023-02-01T04:29:48;24.98;;;4.35;;
72261;SDS011;60173;52.112;8.648;2023-02-01T04:32:15;26.20;;;4.35;;
72261;SDS011;60173;52.112;8.648;2023-02-01T04:34:42;36.42;;;4.78;;
72261;SDS011;60173;52.112;8.648;2023-02-01T04:37:08;34.40;;;4.75;;
72261;SDS011;60173;52.112;8.648;2023-02-01T04:39:35;23.67;;;5.03;;
72261;SDS011;60173;52.112;8.648;2023-02-01T04:42:01;22.67;;;4.32;;
72261;SDS011;60173;52.112;8.648;2023-02-01T04:44:28;22.88;;;4.65;;
72261;SDS011;60173;52.112;8.648;2023-02-01T04:46:54;28.58;;;5.15;;
72261;SDS011;60173;52.112;8.648;2023-02-01T04:49:20;26.20;;;4.35;;
72261;SDS011;60173;52.112;8.648;2023-02-01T04:51:47;26.35;;;4.50;;
72261;SDS011;60173;52.112;8.648;2023-02-01T04:54:14;30.30;;;4.93;;
72261;SDS011;60173;52.112;8.648;2023-02-01T04:56:40;24.92;;;4.28;;
72261;SDS011;60173;52.112;8.648;2023-02-01T04:59:06;23.27;;;4.13;;
72261;SDS011;60173;52.112;8.648;2023-02-01T05:01:33;31.92;;;4.93;;
72261;SDS011;60173;52.112;8.648;2023-02-01T05:03:59;25.23;;;4.55;;
72261;SDS011;60173;52.112;8.648;2023-02-01T05:06:25;26.10;;;4.80;;
72261;SDS011;60173;52.112;8.648;2023-02-01T05:08:52;23.67;;;4.72;;
72261;SDS011;60173;52.112;8.648;2023-02-01T05:11:18;27.45;;;4.50;;
72261;SDS011;60173;52.112;8.648;2023-02-01T05:13:44;27.35;;;5.63;;
72261;SDS011;60173;52.112;8.648;2023-02-01T05:16:11;24.05;;;4.38;;
72261;SDS011;60173;52.112;8.648;2023-02-01T05:18:37;30.67;;;4.50;;
72261;SDS011;60173;52.112;8.648;2023-02-01T05:21:03;30.27;;;4.70;;
72261;SDS011;60173;52.112;8.648;2023-02-01T05:23:30;27.38;;;4.60;;
72261;SDS011;60173;52.112;8.648;2023-02-01T05:25:59;28.25;;;4.85;;
72261;SDS011;60173;52.112;8.648;2023-02-01T05:28:27;28.42;;;4.57;;
72261;SDS011;60173;52.112;8.648;2023-02-01T05:30:54;23.05;;;4.40;;
72261;SDS011;60173;52.112;8.648;2023-02-01T05:33:20;29.05;;;4.35;;
72261;SDS011;60173;52.112;8.648;2023-02-01T05:35:47;29.50;;;5.20;;
72261;SDS011;60173;52.112;8.648;2023-02-01T05:38:13;27.83;;;4.45;;
72261;SDS011;60173;52.112;8.648;2023-02-01T05:40:39;23.98;;;4.13;;
72261;SDS011;60173;52.112;8.648;2023-02-01T05:43:06;23.10;;;4.35;;
72261;SDS011;60173;52.112;8.648;2023-02-01T05:45:32;27.33;;;5.15;;
72261;SDS011;60173;52.112;8.648;2023-02-01T05:47:58;29.55;;;5.30;;
72261;SDS011;60173;52.112;8.648;2023-02-01T05:50:25;31.52;;;5.40;;
72261;SDS011;60173;52.112;8.648;2023-02-01T05:52:51;32.63;;;5.90;;
72261;SDS011;60173;52.112;8.648;2023-02-01T05:55:17;29.13;;;5.68;;
72261;SDS011;60173;52.112;8.648;2023-02-01T05:57:44;24.83;;;4.75;;
72261;SDS011;60173;52.112;8.648;2023-02-01T06:00:10;31.15;;;4.70;;
72261;SDS011;60173;52.112;8.648;2023-02-01T06:02:37;26.65;;;5.38;;
72261;SDS011;60173;52.112;8.648;2023-02-01T06:05:03;26.98;;;4.82;;
72261;SDS011;60173;52.112;8.648;2023-02-01T06:07:30;24.65;;;5.22;;
72261;SDS011;60173;52.112;8.648;2023-02-01T06:09:56;29.63;;;4.90;;
72261;SDS011;60173;52.112;8.648;2023-02-01T06:12:23;27.60;;;4.90;;
72261;SDS011;60173;52.112;8.648;2023-02-01T06:14:49;37.47;;;5.88;;
72261;SDS011;60173;52.112;8.648;2023-02-01T06:17:15;47.13;;;6.00;;
72261;SDS011;60173;52.112;8.648;2023-02-01T06:19:42;30.15;;;5.78;;
72261;SDS011;60173;52.112;8.648;2023-02-01T06:22:08;28.10;;;5.53;;
72261;SDS011;60173;52.112;8.648;2023-02-01T06:24:34;27.42;;;4.85;;
72261;SDS011;60173;52.112;8.648;2023-02-01T06:27:01;28.77;;;5.43;;
72261;SDS011;60173;52.112;8.648;2023-02-01T06:29:27;27.35;;;4.72;;
72261;SDS011;60173;52.112;8.648;2023-02-01T06:31:53;32.28;;;5.68;;
72261;SDS011;60173;52.112;8.648;2023-02-01T06:34:20;28.63;;;5.30;;
72261;SDS011;60173;52.112;8.648;2023-02-01T06:36:47;24.20;;;4.93;;
72261;SDS011;60173;52.112;8.648;2023-02-01T06:39:13;27.98;;;5.10;;
72261;SDS011;60173;52.112;8.648;2023-02-01T06:41:40;21.90;;;4.45;;
72261;SDS011;60173;52.112;8.648;2023-02-01T06:44:06;29.77;;;5.40;;
72261;SDS011;60173;52.112;8.648;2023-02-01T06:46:32;29.42;;;5.60;;
72261;SDS011;60173;52.112;8.648;2023-02-01T06:48:59;32.72;;;5.13;;
72261;SDS011;60173;52.112;8.648;2023-02-01T06:51:26;21.23;;;4.35;;
72261;SDS011;60173;52.112;8.648;2023-02-01T06:53:53;28.67;;;4.32;;
72261;SDS011;60173;52.112;8.648;2023-02-01T06:56:20;22.88;;;4.63;;
72261;SDS011;60173;52.112;8.648;2023-02-01T06:58:47;34.80;;;5.30;;
72261;SDS011;60173;52.112;8.648;2023-02-01T07:01:14;27.00;;;5.05;;
72261;SDS011;60173;52.112;8.648;2023-02-01T07:03:41;25.85;;;4.55;;
72261;SDS011;60173;52.112;8.648;2023-02-01T07:06:08;27.45;;;4.70;;
72261;SDS011;60173;52.112;8.648;2023-02-01T07:08:35;35.80;;;4.72;;
72261;SDS011;60173;52.112;8.648;2023-02-01T07:11:04;34.40;;;5.20;;
72261;SDS011;60173;52.112;8.648;2023-02-01T07:13:31;25.65;;;4.88;;
72261;SDS011;60173;52.112;8.648;2023-02-01T07:15:59;24.17;;;4.72;;
72261;SDS011;60173;52.112;8.648;2023-02-01T07:18:30;25.42;;;4.47;;
72261;SDS011;60173;52.112;8.648;2023-02-01T07:20:57;32.33;;;5.70;;
72261;SDS011;60173;52.112;8.648;2023-02-01T07:23:23;25.05;;;4.20;;
72261;SDS011;60173;52.112;8.648;2023-02-01T07:25:55;26.17;;;3.90;;
72261;SDS011;60173;52.112;8.648;2023-02-01T07:28:23;25.17;;;4.57;;
72261;SDS011;60173;52.112;8.648;2023-02-01T07:30:49;30.10;;;4.70;;
72261;SDS011;60173;52.112;8.648;2023-02-01T07:33:17;29.65;;;5.22;;
72261;SDS011;60173;52.112;8.648;2023-02-01T07:35:45;25.17;;;4.13;;
72261;SDS011;60173;52.112;8.648;2023-02-01T07:38:12;26.67;;;5.03;;
72261;SDS011;60173;52.112;8.648;2023-02-01T07:40:38;28.15;;;5.07;;
72261;SDS011;60173;52.112;8.648;2023-02-01T07:43:04;30.45;;;4.50;;
72261;SDS011;60173;52.112;8.648;2023-02-01T07:45:31;22.90;;;4.20;;
72261;SDS011;60173;52.112;8.648;2023-02-01T07:48:01;28.92;;;4.63;;
72261;SDS011;60173;52.112;8.648;2023-02-01T07:50:27;20.63;;;4.75;;
72261;SDS011;60173;52.112;8.648;2023-02-01T07:52:54;28.70;;;4.55;;
72261;SDS011;60173;52.112;8.648;2023-02-01T07:55:21;29.52;;;4.47;;
72261;SDS011;60173;52.112;8.648;2023-02-01T07:57:47;29.77;;;4.80;;
72261;SDS011;60173;52.112;8.648;2023-02-01T08:00:13;23.23;;;4.65;;
72261;SDS011;60173;52.112;8.648;2023-02-01T08:02:40;24.23;;;4.25;;
72261;SDS011;60173;52.112;8.648;2023-02-01T08:05:07;30.00;;;4.40;;
72261;SDS011;60173;52.112;8.648;2023-02-01T08:07:34;26.13;;;4.60;;
72261;SDS011;60173;52.112;8.648;2023-02-01T08:10:00;24.08;;;5.05;;
72261;SDS011;60173;52.112;8.648;2023-02-01T08:12:27;28.42;;;4.60;;
72261;SDS011;60173;52.112;8.648;2023-02-01T08:14:53;24.20;;;4.10;;
72261;SDS011;60173;52.112;8.648;2023-02-01T08:17:20;29.83;;;4.75;;
72261;SDS011;60173;52.112;8.648;2023-02-01T08:19:46;18.90;;;3.70;;
72261;SDS011;60173;52.112;8.648;2023-02-01T08:22:13;20.73;;;3.78;;
72261;SDS011;60173;52.112;8.648;2023-02-01T08:24:39;23.05;;;4.32;;
72261;SDS011;60173;52.112;8.648;2023-02-01T08:27:05;25.33;;;4.50;;
72261;SDS011;60173;52.112;8.648;2023-02-01T08:29:32;28.27;;;4.63;;
72261;SDS011;60173;52.112;8.648;2023-02-01T08:31:58;18.73;;;4.22;;
72261;SDS011;60173;52.112;8.648;2023-02-01T08:34:24;23.42;;;4.65;;
72261;SDS011;60173;52.112;8.648;2023-02-01T08:36:52;26.70;;;4.65;;
72261;SDS011;60173;52.112;8.648;2023-02-01T08:39:18;25.52;;;4.63;;
72261;SDS011;60173;52.112;8.648;2023-02-01T08:41:45;20.83;;;4.03;;
72261;SDS011;60173;52.112;8.648;2023-02-01T08:44:11;26.13;;;5.50;;
72261;SDS011;60173;52.112;8.648;2023-02-01T08:46:37;22.70;;;4.10;;
72261;SDS011;60173;52.112;8.648;2023-02-01T08:49:04;26.05;;;5.10;;
72261;SDS011;60173;52.112;8.648;2023-02-01T08:51:30;22.30;;;4.30;;
72261;SDS011;60173;52.112;8.648;2023-02-01T08:53:56;21.75;;;4.15;;
72261;SDS011;60173;52.112;8.648;2023-02-01T08:56:23;21.77;;;4.20;;
72261;SDS011;60173;52.112;8.648;2023-02-01T08:58:49;23.92;;;5.03;;
72261;SDS011;60173;52.112;8.648;2023-02-01T09:01:16;25.02;;;5.07;;
72261;SDS011;60173;52.112;8.648;2023-02-01T09:03:43;23.38;;;4.85;;
72261;SDS011;60173;52.112;8.648;2023-02-01T09:06:11;21.70;;;3.78;;
72261;SDS011;60173;52.112;8.648;2023-02-01T09:08:39;19.42;;;4.05;;
72261;SDS011;60173;52.112;8.648;2023-02-01T09:11:09;24.80;;;4.38;;
72261;SDS011;60173;52.112;8.648;2023-02-01T09:13:38;27.27;;;5.00;;
72261;SDS011;60173;52.112;8.648;2023-02-01T09:16:04;21.20;;;4.00;;
72261;SDS011;60173;52.112;8.648;2023-02-01T09:18:31;27.85;;;4.68;;
72261;SDS011;60173;52.112;8.648;2023-02-01T09:20:57;27.40;;;4.63;;
72261;SDS011;60173;52.112;8.648;2023-02-01T09:23:24;30.40;;;5.07;;
72261;SDS011;60173;52.112;8.648;2023-02-01T09:25:50;27.75;;;3.90;;
72261;SDS011;60173;52.112;8.648;2023-02-01T09:28:17;21.27;;;4.25;;
72261;SDS011;60173;52.112;8.648;2023-02-01T09:30:44;24.45;;;3.95;;
72261;SDS011;60173;52.112;8.648;2023-02-01T09:33:10;20.27;;;4.68;;
72261;SDS011;60173;52.112;8.648;2023-02-01T09:35:37;16.83;;;3.95;;
72261;SDS011;60173;52.112;8.648;2023-02-01T09:38:03;15.55;;;3.70;;
72261;SDS011;60173;52.112;8.648;2023-02-01T09:40:29;21.02;;;3.97;;
72261;SDS011;60173;52.112;8.648;2023-02-01T09:48:02;20.67;;;3.95;;
72261;SDS011;60173;52.112;8.648;2023-02-01T09:50:36;22.73;;;4.38;;
72261;SDS011;60173;52.112;8.648;2023-02-01T09:55:51;23.70;;;3.83;;
72261;SDS011;60173;52.112;8.648;2023-02-01T10:01:15;22.73;;;4.68;;
72261;SDS011;60173;52.112;8.648;2023-02-01T10:03:45;19.38;;;4.28;;
72261;SDS011;60173;52.112;8.648;2023-02-01T10:26:12;27.83;;;4.57;;
72261;SDS011;60173;52.112;8.648;2023-02-01T10:28:45;18.08;;;4.13;;
72261;SDS011;60173;52.112;8.648;2023-02-01T10:31:15;28.33;;;4.80;;
72261;SDS011;60173;52.112;8.648;2023-02-01T10:36:14;25.63;;;4.57;;
72261;SDS011;60173;52.112;8.648;2023-02-01T10:38:45;16.83;;;3.33;;
72261;SDS011;60173;52.112;8.648;2023-02-01T10:41:16;22.08;;;4.10;;
72261;SDS011;60173;52.112;8.648;2023-02-01T10:43:46;19.13;;;4.25;;
72261;SDS011;60173;52.112;8.648;2023-02-01T10:46:16;15.82;;;4.18;;
72261;SDS011;60173;52.112;8.648;2023-02-01T10:48:43;27.60;;;4.82;;
72261;SDS011;60173;52.112;8.648;2023-02-01T10:51:12;21.65;;;4.07;;
72261;SDS011;60173;52.112;8.648;2023-02-01T10:53:44;17.77;;;3.92;;
72261;SDS011;60173;52.112;8.648;2023-02-01T10:56:32;22.02;;;3.80;;
72261;SDS011;60173;52.112;8.648;2023-02-01T10:59:04;23.65;;;3.88;;
72261;SDS011;60173;52.112;8.648;2023-02-01T11:01:42;17.95;;;4.15;;
72261;SDS011;60173;52.112;8.648;2023-02-01T11:04:11;17.30;;;4.10;;
72261;SDS011;60173;52.112;8.648;2023-02-01T11:06:39;21.58;;;4.13;;
72261;SDS011;60173;52.112;8.648;2023-02-01T11:11:52;21.00;;;3.72;;
72261;SDS011;60173;52.112;8.648;2023-02-01T11:14:41;27.45;;;4.32;;
72261;SDS011;60173;52.112;8.648;2023-02-01T11:17:26;24.88;;;4.07;;
72261;SDS011;60173;52.112;8.648;2023-02-01T11:19:58;26.55;;;4.55;;
72261;SDS011;60173;52.112;8.648;2023-02-01T11:22:27;16.80;;;3.58;;
72261;SDS011;60173;52.112;8.648;2023-02-01T11:24:54;16.80;;;4.15;;
72261;SDS011;60173;52.112;8.648;2023-02-01T11:27:21;25.85;;;4.40;;
72261;SDS011;60173;52.112;8.648;2023-02-01T11:29:54;20.05;;;4.32;;
72261;SDS011;60173;52.112;8.648;2023-02-01T11:32:25;22.67;;;4.35;;
72261;SDS011;60173;52.112;8.648;2023-02-01T11:34:57;23.45;;;4.55;;
72261;SDS011;60173;52.112;8.648;2023-02-01T11:37:29;19.77;;;4.35;;
72261;SDS011;60173;52.112;8.648;2023-02-01T11:39:59;17.65;;;3.45;;
72261;SDS011;60173;52.112;8.648;2023-02-01T11:42:28;13.18;;;2.75;;
72261;SDS011;60173;52.112;8.648;2023-02-01T11:47:44;19.83;;;4.75;;
72261;SDS011;60173;52.112;8.648;2023-02-01T11:50:46;17.65;;;3.72;;
72261;SDS011;60173;52.112;8.648;2023-02-01T11:53:13;19.48;;;4.57;;
72261;SDS011;60173;52.112;8.648;2023-02-01T11:55:52;26.55;;;4.45;;
72261;SDS011;60173;52.112;8.648;2023-02-01T12:04:44;20.45;;;4.63;;
72261;SDS011;60173;52.112;8.648;2023-02-01T12:07:22;20.92;;;4.53;;
72261;SDS011;60173;52.112;8.648;2023-02-01T12:10:05;18.95;;;3.40;;
72261;SDS011;60173;52.112;8.648;2023-02-01T12:12:50;17.42;;;4.05;;
72261;SDS011;60173;52.112;8.648;2023-02-01T12:15:40;18.05;;;3.67;;
72261;SDS011;60173;52.112;8.648;2023-02-01T12:18:25;15.35;;;2.88;;
72261;SDS011;60173;52.112;8.648;2023-02-01T12:23:46;14.63;;;4.43;;
72261;SDS011;60173;52.112;8.648;2023-02-01T12:29:07;18.40;;;3.67;;
72261;SDS011;60173;52.112;8.648;2023-02-01T12:31:44;20.05;;;4.30;;
72261;SDS011;60173;52.112;8.648;2023-02-01T12:36:50;16.30;;;3.85;;
72261;SDS011;60173;52.112;8.648;2023-02-01T12:42:31;14.57;;;3.88;;
72261;SDS011;60173;52.112;8.648;2023-02-01T12:45:03;18.92;;;3.75;;
72261;SDS011;60173;52.112;8.648;2023-02-01T12:48:02;17.88;;;4.35;;
72261;SDS011;60173;52.112;8.648;2023-02-01T12:50:51;15.38;;;4.03;;
72261;SDS011;60173;52.112;8.648;2023-02-01T12:53:27;24.48;;;4.45;;
72261;SDS011;60173;52.112;8.648;2023-02-01T12:55:57;16.05;;;4.32;;
72261;SDS011;60173;52.112;8.648;2023-02-01T12:58:32;18.92;;;4.60;;
72261;SDS011;60173;52.112;8.648;2023-02-01T13:01:12;16.60;;;5.05;;
72261;SDS011;60173;52.112;8.648;2023-02-01T13:06:36;25.00;;;4.97;;
72261;SDS011;60173;52.112;8.648;2023-02-01T13:09:22;17.05;;;4.93;;
72261;SDS011;60173;52.112;8.648;2023-02-01T13:11:53;19.40;;;4.75;;
72261;SDS011;60173;52.112;8.648;2023-02-01T13:14:32;14.25;;;4.97;;
72261;SDS011;60173;52.112;8.648;2023-02-01T13:17:05;21.63;;;6.15;;
72261;SDS011;60173;52.112;8.648;2023-02-01T13:19:44;17.00;;;5.38;;
72261;SDS011;60173;52.112;8.648;2023-02-01T13:22:19;21.92;;;5.85;;
72261;SDS011;60173;52.112;8.648;2023-02-01T13:24:55;20.92;;;5.75;;
72261;SDS011;60173;52.112;8.648;2023-02-01T13:27:26;23.77;;;5.38;;
72261;SDS011;60173;52.112;8.648;2023-02-01T13:29:59;20.67;;;6.03;;
72261;SDS011;60173;52.112;8.648;2023-02-01T13:32:46;19.35;;;5.43;;
72261;SDS011;60173;52.112;8.648;2023-02-01T13:44:05;20.95;;;6.38;;
72261;SDS011;60173;52.112;8.648;2023-02-01T13:46:41;26.55;;;5.90;;
72261;SDS011;60173;52.112;8.648;2023-02-01T13:49:18;17.90;;;5.78;;
72261;SDS011;60173;52.112;8.648;2023-02-01T13:51:49;22.83;;;4.75;;
72261;SDS011;60173;52.112;8.648;2023-02-01T13:54:28;27.73;;;5.00;;
72261;SDS011;60173;52.112;8.648;2023-02-01T13:57:04;18.98;;;4.20;;
72261;SDS011;60173;52.112;8.648;2023-02-01T14:00:05;21.02;;;4.65;;
72261;SDS011;60173;52.112;8.648;2023-02-01T14:08:11;25.30;;;4.65;;
72261;SDS011;60173;52.112;8.648;2023-02-01T14:31:54;18.40;;;4.00;;
72261;SDS011;60173;52.112;8.648;2023-02-01T14:39:52;9.70;;;2.28;;
72261;SDS011;60173;52.112;8.648;2023-02-01T14:42:30;9.45;;;1.90;;
72261;SDS011;60173;52.112;8.648;2023-02-01T14:47:44;8.02;;;1.95;;
72261;SDS011;60173;52.112;8.648;2023-02-01T14:55:39;7.95;;;1.33;;
72261;SDS011;60173;52.112;8.648;2023-02-01T14:58:21;9.55;;;1.75;;
72261;SDS011;60173;52.112;8.648;2023-02-01T15:00:58;6.30;;;1.25;;
72261;SDS011;60173;52.112;8.648;2023-02-01T15:06:23;10.15;;;2.03;;
72261;SDS011;60173;52.112;8.648;2023-02-01T15:08:54;14.18;;;2.17;;
72261;SDS011;60173;52.112;8.648;2023-02-01T15:11:23;9.98;;;1.85;;
72261;SDS011;60173;52.112;8.648;2023-02-01T15:13:50;13.52;;;2.85;;
72261;SDS011;60173;52.112;8.648;2023-02-01T15:16:19;13.90;;;2.70;;
72261;SDS011;60173;52.112;8.648;2023-02-01T15:18:46;16.15;;;2.50;;
72261;SDS011;60173;52.112;8.648;2023-02-01T15:21:20;18.98;;;3.08;;
72261;SDS011;60173;52.112;8.648;2023-02-01T15:24:09;16.25;;;3.00;;
72261;SDS011;60173;52.112;8.648;2023-02-01T15:26:37;17.48;;;3.30;;
72261;SDS011;60173;52.112;8.648;2023-02-01T15:29:03;12.98;;;2.63;;
72261;SDS011;60173;52.112;8.648;2023-02-01T15:31:31;20.00;;;3.15;;
72261;SDS011;60173;52.112;8.648;2023-02-01T15:34:04;11.10;;;2.70;;
72261;SDS011;60173;52.112;8.648;2023-02-01T15:36:30;14.73;;;3.25;;
72261;SDS011;60173;52.112;8.648;2023-02-01T15:41:41;15.23;;;3.45;;
72261;SDS011;60173;52.112;8.648;2023-02-01T15:44:16;20.60;;;3.45;;
72261;SDS011;60173;52.112;8.648;2023-02-01T15:46:45;21.20;;;3.35;;
72261;SDS011;60173;52.112;8.648;2023-02-01T15:49:30;22.77;;;3.70;;
72261;SDS011;60173;52.112;8.648;2023-02-01T15:52:02;21.35;;;3.33;;
72261;SDS011;60173;52.112;8.648;2023-02-01T15:54:46;15.95;;;2.90;;
72261;SDS011;60173;52.112;8.648;2023-02-01T15:57:30;14.27;;;2.50;;
72261;SDS011;60173;52.112;8.648;2023-02-01T16:00:02;20.33;;;3.45;;
72261;SDS011;60173;52.112;8.648;2023-02-01T16:02:35;17.00;;;3.05;;
72261;SDS011;60173;52.112;8.648;2023-02-01T16:05:02;19.67;;;3.35;;
72261;SDS011;60173;52.112;8.648;2023-02-01T16:07:31;17.13;;;3.92;;
72261;SDS011;60173;52.112;8.648;2023-02-01T16:09:59;17.52;;;3.22;;
72261;SDS011;60173;52.112;8.648;2023-02-01T16:12:31;20.00;;;3.97;;
72261;SDS011;60173;52.112;8.648;2023-02-01T16:15:00;21.60;;;4.63;;
72261;SDS011;60173;52.112;8.648;2023-02-01T16:17:27;20.63;;;4.82;;
72261;SDS011;60173;52.112;8.648;2023-02-01T16:19:53;26.83;;;4.22;;
72261;SDS011;60173;52.112;8.648;2023-02-01T16:22:20;19.60;;;4.00;;
72261;SDS011;60173;52.112;8.648;2023-02-01T16:24:46;15.35;;;3.42;;
72261;SDS011;60173;52.112;8.648;2023-02-01T16:27:12;17.40;;;3.70;;
72261;SDS011;60173;52.112;8.648;2023-02-01T16:29:39;23.52;;;4.28;;
72261;SDS011;60173;52.112;8.648;2023-02-01T16:32:18;20.40;;;4.22;;
72261;SDS011;60173;52.112;8.648;2023-02-01T16:34:46;10.10;;;2.50;;
72261;SDS011;60173;52.112;8.648;2023-02-01T16:37:15;7.93;;;1.98;;
72261;SDS011;60173;52.112;8.648;2023-02-01T16:39:45;13.50;;;2.13;;
72261;SDS011;60173;52.112;8.648;2023-02-01T16:42:12;7.82;;;1.92;;
72261;SDS011;60173;52.112;8.648;2023-02-01T16:44:39;9.15;;;1.80;;
72261;SDS011;60173;52.112;8.648;2023-02-01T16:47:28;9.82;;;1.75;;
72261;SDS011;60173;52.112;8.648;2023-02-01T16:49:52;11.35;;;2.42;;
72261;SDS011;60173;52.112;8.648;2023-02-01T16:52:20;9.88;;;2.67;;
72261;SDS011;60173;52.112;8.648;2023-02-01T16:54:48;12.60;;;2.67;;
72261;SDS011;60173;52.112;8.648;2023-02-01T16:57:15;15.80;;;3.35;;
72261;SDS011;60173;52.112;8.648;2023-02-01T16:59:44;14.95;;;2.80;;
72261;SDS011;60173;52.112;8.648;2023-02-01T17:02:12;22.70;;;3.83;;
72261;SDS011;60173;52.112;8.648;2023-02-01T17:04:40;29.60;;;4.43;;
72261;SDS011;60173;52.112;8.648;2023-02-01T17:07:09;21.88;;;4.63;;
72261;SDS011;60173;52.112;8.648;2023-02-01T17:09:46;31.55;;;4.68;;
72261;SDS011;60173;52.112;8.648;2023-02-01T17:12:23;27.20;;;4.30;;
72261;SDS011;60173;52.112;8.648;2023-02-01T17:14:53;28.40;;;4.10;;
72261;SDS011;60173;52.112;8.648;2023-02-01T17:17:20;27.13;;;4.38;;